Flight Track Log - Related Links

Times and Time Zones

All times are in EDT time to prevent confusion due to time zone crossing. See the N328SR flight status page for this flight to view local times or setup timezone preferences in your user account.

Time Position Orientation Groundspeed Altitude Reporting Facility
EDT Latitude Longitude Course Direction KTS MPH feet Rate Location/Type
Wed 01:31:09 PM 44.3597 -73.1119 167° South 119 137 3,600  Level Boston Center
Wed 01:32:10 PM 44.3219 -73.0981 165° South 127 146 4,400 694 Climbing Boston Center
Wed 01:33:10 PM 44.2856 -73.0839 164° South 132 152 5,000 290 Climbing Boston Center
Wed 01:34:14 PM 44.2414 -73.0683 166° South 151 174 5,000 97 Level Boston Center
Wed 01:35:00 PM 44.2026 -73.0510 165° South  Level FlightAware Approximate
Wed 01:35:14 PM 44.2003 -73.0514 164° South 155 178 5,200  Level Boston Center
Wed 01:36:00 PM 44.1584 -73.0361 167° South  Level FlightAware Approximate
Wed 01:36:18 PM 44.1614 -73.0392 167° South 148 170 5,600  Level Boston Center
Wed 01:37:18 PM 44.1186 -73.0242 166° South 148 170 6,200 484 Climbing Boston Center
Wed 01:38:22 PM 44.0778 -73.0078 164° South 151 174 6,600 432 Climbing Boston Center
Wed 01:39:23 PM 44.0333 -72.9917 165° South 152 175 7,100 492 Climbing Boston Center
Wed 01:40:24 PM 43.9933 -72.9764 165° South 152 175 7,600 492 Climbing Boston Center
Wed 01:41:25 PM 43.9483 -72.9594 165° South 153 176 8,100 432 Climbing Boston Center
Wed 01:42:29 PM 43.9042 -72.9450 167° South 164 189 8,500 432 Climbing Boston Center
Wed 01:43:30 PM 43.8569 -72.9278 165° South 164 189 9,000 496 Climbing Boston Center
Wed 01:44:30 PM 43.8158 -72.9144 167° South 156 180 9,500 387 Climbing Boston Center
Wed 01:45:34 PM 43.7706 -72.8964 164° South 158 182 9,800 144 Climbing Boston Center
Wed 01:46:35 PM 43.7264 -72.8806 165° South 163 188 9,800  Level Boston Center
Wed 01:47:36 PM 43.6794 -72.8644 166° South 163 188 9,800 50 Level Boston Center
Wed 01:48:36 PM 43.6439 -72.8517 165° South 163 188 9,900 48 Climbing Boston Center
Wed 01:49:41 PM 43.5942 -72.8322 164° South 160 184 9,900  Level Boston Center
Wed 01:50:41 PM 43.5539 -72.8175 165° South 155 178 9,900  Level Boston Center
Wed 01:51:42 PM 43.5142 -72.8075 170° South 148 170 9,900  Level Boston Center
Wed 01:52:46 PM 43.4719 -72.7900 163° South 155 178 9,900  Level Boston Center
Wed 01:53:46 PM 43.4308 -72.7758 166° South 155 178 9,900 48 Level Boston Center
Wed 01:54:50 PM 43.3886 -72.7600 165° South 155 178 10,000 48 Climbing Boston Center
Wed 01:55:50 PM 43.3503 -72.7450 164° South 149 171 10,000  Level Boston Center
Wed 01:56:50 PM 43.3047 -72.7300 167° South 144 166 10,000  Level Boston Center
Wed 01:57:54 PM 43.2633 -72.7161 166° South 150 173 10,000  Level Boston Center
Wed 01:58:55 PM 43.2172 -72.6986 165° South 167 192 10,000  Level Boston Center
Wed 01:59:58 PM 43.1711 -72.6808 164° South 172 198 10,000  Level Boston Center
Wed 02:00:58 PM 43.1244 -72.6653 166° South 172 198 10,000  Level Boston Center
Wed 02:01:59 PM 43.0789 -72.6486 165° South 171 197 10,000  Level Boston Center
Wed 02:03:03 PM 43.0344 -72.6333 166° South 169 194 10,000  Level Boston Center
Wed 02:04:04 PM 42.9822 -72.6150 166° South 165 190 10,000  Level Boston Center
Wed 02:05:07 PM 42.9347 -72.5981 165° South 170 196 10,000  Level Boston Center
Wed 02:06:07 PM 42.8878 -72.5794 164° South 174 200 10,000  Level Boston Center
Wed 02:07:08 PM 42.8406 -72.5639 166° South 174 200 10,000  Level Boston Center
Wed 02:08:12 PM 42.7922 -72.5478 166° South 175 201 10,000  Level Boston Center
Wed 02:09:12 PM 42.7453 -72.5306 165° South 175 201 10,000  Level Boston Center
Wed 02:10:15 PM 42.6986 -72.5147 166° South 175 201 10,000  Level Boston Center
Wed 02:10:53 PM 42.6625 -72.5011 165° South 171 197 10,000  Level Boston Center
Wed 02:11:15 PM 42.6522 -72.4975 166° South 175 201 10,000  Level Boston Center
Wed 02:11:48 PM 42.6178 -72.4878 168° South 176 203 10,000  Level Boston Center
Wed 02:12:19 PM 42.5953 -72.4783 163° South 175 201 10,000  Level Boston Center
Wed 02:12:49 PM 42.5714 -72.4711 167° South 174 200 10,000  Level Boston Center
Wed 02:13:19 PM 42.5486 -72.4636 166° South 175 201 10,000  Level Boston Center
Wed 02:13:50 PM 42.5250 -72.4547 164° South 173 199 10,000  Level Boston Center
Wed 02:14:20 PM 42.5017 -72.4464 165° South 174 200 10,000  Level Boston Center
Wed 02:14:51 PM 42.4747 -72.4367 165° South 177 204 10,000  Level Boston Center
Wed 02:15:24 PM 42.4544 -72.4294 165° South 174 200 10,000  Level Boston Center
Wed 02:15:49 PM 42.4258 -72.4219 169° South 176 203 10,000  Level Boston Center
Wed 02:16:25 PM 42.4069 -72.4131 161° South 174 200 10,000  Level Boston Center
Wed 02:16:53 PM 42.3794 -72.4056 169° South 173 199 10,000  Level Boston Center
Wed 02:17:27 PM 42.3603 -72.3969 162° South 175 201 10,000  Level Boston Center
Wed 02:17:52 PM 42.3311 -72.3883 168° South 173 199 10,000  Level Boston Center
Wed 02:18:28 PM 42.3047 -72.3781 164° South 173 199 10,000  Level Boston Center
Wed 02:18:53 PM 42.2847 -72.3717 167° South 173 199 10,000  Level Boston Center
Wed 02:19:29 PM 42.2572 -72.3614 165° South 174 200 10,000 -304 Level Boston Center
Wed 02:20:12 PM 42.2225 -72.3494 166° South 176 203 9,600 -492 Descending Boston Center
Wed 02:20:30 PM 42.2100 -72.3442 163° South 174 200 9,500 -436 Descending Boston Center
Wed 02:21:07 PM 42.1781 -72.3339 167° South 180 207 9,200 -469 Descending Boston Center
Wed 02:21:34 PM 42.1567 -72.3261 165° South 180 207 9,000 -400 Descending Boston Center
Wed 02:22:07 PM 42.1278 -72.3161 166° South 188 216 8,800 -492 Descending Boston Center
Wed 02:22:35 PM 42.1047 -72.3075 165° South 189 217 8,500 -600 Descending Boston Center
Wed 02:22:57 PM 42.0853 -72.3011 166° South 193 222 8,300 -393 Descending Boston Center
Wed 02:23:36 PM 42.0531 -72.2903 166° South 190 219 8,100 -400 Descending Boston Center
Wed 02:23:57 PM 42.0325 -72.2853 170° South 190 219 7,900 -492 Descending Boston Center
Wed 02:24:37 PM 42.0028 -72.2725 162° South 189 217 7,600 -492 Descending Boston Center
Wed 02:24:58 PM 41.9819 -72.2675 170° South 185 213 7,400 -390 Descending Boston Center
Wed 02:25:54 PM 41.9356 -72.2511 165° South 184 212 7,100 -353 Descending Boston Center
Wed 02:26:06 PM 41.9294 -72.2464 150° Southeast 187 215 7,000 -500 Descending Boston Center
Wed 02:26:42 PM 41.8992 -72.2392 170° South 186 214 6,700 -444 Descending Boston Center
Wed 02:27:00 PM 41.8847 -72.2322 160° South 182 209 6,600 -417 Descending Boston Center
Wed 02:27:54 PM 41.8381 -72.2175 167° South 175 201 6,200 -396 Descending Boston Center
Wed 02:28:46 PM 41.7997 -72.2031 164° South 182 209 5,900 -179 Descending Boston Center
Wed 02:29:01 PM 41.7858 -72.1978 164° South 175 201 6,000 97 Climbing Boston Center
Wed 02:29:48 PM 41.7544 -72.1872 166° South 172 198 6,000 -56 Level Boston Center
Wed 02:30:48 PM 41.7067 -72.1711 166° South 167 192 5,900  Descending Boston Center
Wed 02:31:49 PM 41.6628 -72.1567 166° South 166 191 6,000 68 Climbing Boston Center
Wed 02:32:16 PM 41.6406 -72.1486 165° South 166 191 6,000  Level Boston Center
Wed 02:32:53 PM 41.6150 -72.1394 165° South 166 191 6,000 -184 Level Boston Center
Wed 02:33:54 PM 41.5719 -72.1267 167° South 162 186 5,700 -347 Descending Boston Center
Wed 02:34:54 PM 41.5272 -72.1114 166° South 163 188 5,300 -488 Descending Boston Center
Wed 02:35:20 PM 41.5064 -72.1069 171° South 165 190 5,000 -476 Descending Boston Center
Wed 02:35:57 PM 41.4767 -72.0944 163° South 175 201 4,800 -889 Descending Boston Center
Wed 02:37:08 PM 41.4256 -72.0594 153° Southeast 169 194 3,400 -1,230 Descending Boston Center
Wed 02:37:59 PM 41.4033 -72.0106 121° Southeast 184 212 2,300 -1,333 Descending Boston Center
Wed 02:38:11 PM 41.3958 -72.0050 151° Southeast 172 198 2,000 -667 Descending Boston Center
Wed 02:39:02 PM 41.3769 -72.0000 169° South 83 96 1,600 -636 Descending Boston Center
Wed 02:39:17 PM 41.3725 -72.0022 201° Southwest 47 54 1,300 -492 Descending Boston Center
Wed 02:40:03 PM 41.3608 -72.0089 203° Southwest 67 77 1,100 -495 Descending Boston Center
Wed 02:41:06 PM 41.3472 -72.0300 229° Southwest 65 75 400 -667 Descending Boston Center
Wed 02:43:00 PM 41.3301 -72.0451 163° South  Level Estimated
Wed 02:50:00 PM 41.3301 -72.0451 163° South  Level Estimated
Wed 02:51:00 PM 41.3301 -72.0451 146° Southeast  Level Estimated
Wed 02:52:00 PM 41.3301 -72.0451 163° South  Level Estimated
Wed 02:53:00 PM 41.3301 -72.0451 146° Southeast  Level Estimated

Login

Don't have an account? Register now (free) for customized features, flight alerts, and more!